Time;durP1;ratioP1;P1;durP2;ratioP2;P2;SDS_P1;SDS_P2;PMS_P1;PMS_P2;Temp;Humidity;BMP_temperature;BMP_pressure;BME280_temperature;BME280_humidity;BME280_pressure;Samples;Min_cycle;Max_cycle;Signal;HPM_P1;HPM_P2
2022/03/20 00:00:14;;;;;;;47.33;23.93;;;;;;;8.84;45.14;98536.78;5055019;28;20246;-71
2022/03/20 00:02:40;;;;;;;30.53;22.17;;;;;;;8.92;45.22;98539.72;5071667;28;20559;-72
2022/03/20 00:05:07;;;;;;;33.23;21.67;;;;;;;8.95;44.52;98536.88;5070839;28;20475;-71
2022/03/20 00:07:33;;;;;;;33.07;22.10;;;;;;;8.94;44.75;98530.00;5060799;28;20433;-71
2022/03/20 00:10:04;;;;;;;33.97;22.23;;;;;;;8.87;44.25;98541.81;5065840;28;20482;-72
2022/03/20 00:12:29;;;;;;;37.90;22.43;;;;;;;8.84;44.28;98528.94;5071196;28;20868;-73
2022/03/20 00:14:55;;;;;;;33.10;22.50;;;;;;;8.90;44.61;98531.16;5070894;28;20437;-72
2022/03/20 00:17:21;;;;;;;31.73;21.73;;;;;;;8.89;45.01;98521.63;5070020;28;20628;-71
2022/03/20 00:19:47;;;;;;;30.33;20.87;;;;;;;8.91;44.54;98524.97;5071382;28;20235;-72
2022/03/20 00:22:13;;;;;;;33.30;22.50;;;;;;;8.94;44.97;98527.38;5071286;28;20788;-72
2022/03/20 00:24:42;;;;;;;34.27;22.67;;;;;;;8.91;44.73;98520.56;5070900;28;20210;-71
2022/03/20 00:27:09;;;;;;;37.60;23.47;;;;;;;8.94;45.15;98526.53;5045470;28;20194;-71
2022/03/20 00:29:34;;;;;;;32.50;22.57;;;;;;;8.84;44.90;98527.19;5071117;28;20432;-71
2022/03/20 00:32:00;;;;;;;32.87;22.90;;;;;;;8.84;45.44;98521.09;5064350;28;21026;-71
2022/03/20 00:34:25;;;;;;;32.60;22.30;;;;;;;8.84;44.90;98521.09;5069652;28;20210;-71
2022/03/20 00:36:51;;;;;;;35.10;22.80;;;;;;;8.83;45.58;98522.91;5070978;28;20182;-70
2022/03/20 00:39:16;;;;;;;31.03;22.60;;;;;;;8.84;45.03;98527.19;5069682;28;20222;-70
2022/03/20 00:41:42;;;;;;;34.17;23.37;;;;;;;8.86;45.13;98527.06;5061201;28;20182;-72
2022/03/20 00:44:07;;;;;;;33.70;22.73;;;;;;;8.82;45.54;98515.19;5067350;28;20206;-70
2022/03/20 00:46:33;;;;;;;30.77;21.10;;;;;;;8.83;45.39;98517.66;5069705;28;20186;-71
2022/03/20 00:48:58;;;;;;;35.37;22.73;;;;;;;8.84;45.63;98521.09;5071149;28;20186;-72
2022/03/20 00:51:24;;;;;;;37.63;22.47;;;;;;;8.84;45.39;98519.34;5069835;28;20265;-72
2022/03/20 00:53:49;;;;;;;38.50;23.07;;;;;;;8.85;45.54;98515.78;5069599;28;20232;-71
2022/03/20 00:56:15;;;;;;;33.07;23.30;;;;;;;8.76;45.70;98517.28;5070360;28;20198;-71
2022/03/20 00:58:41;;;;;;;34.03;22.33;;;;;;;8.83;45.48;98522.06;5072848;28;20182;-72
2022/03/20 01:01:09;;;;;;;34.20;23.50;;;;;;;8.82;45.12;98512.56;5069294;28;20494;-71
2022/03/20 01:03:35;;;;;;;31.50;22.30;;;;;;;8.89;45.43;98516.41;5074700;28;20217;-72
2022/03/20 01:06:01;;;;;;;32.70;22.53;;;;;;;8.86;45.44;98511.38;5074450;28;20843;-72
2022/03/20 01:08:27;;;;;;;30.40;21.10;;;;;;;8.84;45.20;98515.88;5074512;28;20435;-72
2022/03/20 01:10:52;;;;;;;34.00;22.20;;;;;;;8.85;45.78;98507.09;5074508;28;20179;-72
2022/03/20 01:13:18;;;;;;;32.00;23.63;;;;;;;8.76;46.14;98506.81;5073238;28;20181;-72
2022/03/20 01:15:44;;;;;;;28.70;21.30;;;;;;;8.74;45.55;98508.69;5074463;28;20275;-72
2022/03/20 01:18:09;;;;;;;32.43;23.00;;;;;;;8.56;45.82;98499.56;5073378;28;20186;-70
2022/03/20 01:20:35;;;;;;;29.00;22.57;;;;;;;8.66;46.03;98499.72;5074563;28;20206;-73
2022/03/20 01:23:00;;;;;;;31.37;21.87;;;;;;;8.70;45.85;98501.19;5074472;28;20213;-71
2022/03/20 01:25:26;;;;;;;34.80;22.20;;;;;;;8.68;45.90;98498.69;5072738;28;20669;-72
2022/03/20 01:27:51;;;;;;;34.37;23.03;;;;;;;8.74;45.80;98503.47;5073017;28;20178;-72
2022/03/20 01:30:17;;;;;;;34.83;23.27;;;;;;;8.78;45.45;98487.56;5068330;28;20187;-72
2022/03/20 01:32:43;;;;;;;37.00;24.10;;;;;;;8.78;44.97;98498.03;5073048;28;20174;-72
2022/03/20 01:35:09;;;;;;;30.17;22.10;;;;;;;8.79;45.47;98486.63;5072461;28;20206;-71
2022/03/20 01:37:36;;;;;;;29.13;21.17;;;;;;;8.75;45.49;98492.06;5074231;28;20181;-72
2022/03/20 01:40:03;;;;;;;32.40;23.47;;;;;;;8.65;45.82;98492.81;5066604;28;20434;-72
2022/03/20 01:42:29;;;;;;;37.50;22.97;;;;;;;8.51;45.28;98491.19;5066968;28;20425;-72
2022/03/20 01:44:54;;;;;;;32.10;23.13;;;;;;;8.55;45.83;98495.28;5069106;28;20606;-72
2022/03/20 01:47:20;;;;;;;33.47;23.30;;;;;;;8.62;45.04;98487.84;5054765;28;20230;-71
2022/03/20 01:49:45;;;;;;;33.20;22.33;;;;;;;8.65;44.86;98482.38;5074080;28;20653;-71
2022/03/20 01:52:11;;;;;;;34.30;21.43;;;;;;;8.65;44.66;98464.91;5073790;28;20174;-71
2022/03/20 01:54:42;;;;;;;40.43;24.70;;;;;;;8.56;44.98;98463.78;5073442;28;20206;-72
2022/03/20 01:57:09;;;;;;;33.73;22.87;;;;;;;8.50;45.44;98466.84;5072885;28;20665;-71
2022/03/20 01:59:36;;;;;;;30.90;22.50;;;;;;;8.51;46.09;98471.09;5057400;28;20430;-72
2022/03/20 02:02:05;;;;;;;32.73;21.67;;;;;;;8.54;45.87;98476.13;5056674;28;21070;-72
2022/03/20 02:04:34;;;;;;;30.60;21.60;;;;;;;8.52;45.72;98480.63;5070502;28;20871;-70
2022/03/20 02:07:00;;;;;;;29.13;22.13;;;;;;;8.49;45.96;98477.41;5047294;28;20430;-71
2022/03/20 02:09:26;;;;;;;33.67;23.47;;;;;;;8.49;46.00;98480.84;5051575;28;20433;-71
2022/03/20 02:11:51;;;;;;;32.47;22.60;;;;;;;8.42;46.26;98477.81;5067920;28;20433;-72
2022/03/20 02:14:17;;;;;;;32.90;22.70;;;;;;;8.49;46.44;98473.03;5073085;28;20201;-71
2022/03/20 02:16:44;;;;;;;32.30;22.73;;;;;;;8.53;45.74;98479.69;5065747;28;20175;-72
2022/03/20 02:19:13;;;;;;;33.50;22.40;;;;;;;8.50;45.35;98474.69;5070110;28;20278;-71
2022/03/20 02:21:46;;;;;;;33.70;23.10;;;;;;;8.54;45.22;98465.66;5073342;28;20515;-71
2022/03/20 02:24:32;;;;;;;35.37;23.83;;;;;;;8.56;45.20;98465.59;5071638;28;20460;-72
2022/03/20 02:27:23;;;;;;;30.97;21.77;;;;;;;8.58;45.61;98461.91;5073199;28;20965;-72
2022/03/20 02:29:57;;;;;;;30.53;22.30;;;;;;;8.59;45.50;98453.13;5072754;28;20788;-72
2022/03/20 02:32:31;;;;;;;28.83;21.70;;;;;;;8.64;45.37;98454.56;5071480;28;20420;-71
2022/03/20 02:35:00;;;;;;;31.37;22.10;;;;;;;8.63;45.36;98453.75;5072445;28;20814;-72
2022/03/20 02:37:26;;;;;;;35.43;23.70;;;;;;;8.59;45.68;98452.28;5072665;28;20941;-72
2022/03/20 02:39:55;;;;;;;33.93;22.70;;;;;;;8.60;45.40;98446.97;5060345;28;21057;-73
2022/03/20 02:42:21;;;;;;;32.27;22.20;;;;;;;8.51;45.15;98455.44;5060902;28;20429;-72
2022/03/20 02:44:54;;;;;;;32.00;22.23;;;;;;;8.49;45.37;98446.88;5072294;28;20468;-71
2022/03/20 02:47:23;;;;;;;32.90;22.30;;;;;;;8.37;45.16;98451.16;5064159;28;20792;-70
2022/03/20 02:49:53;;;;;;;33.07;23.33;;;;;;;8.26;45.73;98453.69;5071190;28;20435;-72
2022/03/20 02:52:21;;;;;;;34.73;23.17;;;;;;;8.33;45.70;98452.31;5072407;28;20871;-71
2022/03/20 02:54:47;;;;;;;32.43;23.03;;;;;;;8.37;45.85;98453.78;5071881;28;20441;-72
2022/03/20 02:57:12;;;;;;;33.57;22.27;;;;;;;8.40;45.35;98444.88;5072137;28;21138;-71
2022/03/20 02:59:38;;;;;;;34.33;23.40;;;;;;;8.33;45.13;98441.03;5071326;28;20175;-72
2022/03/20 03:02:03;;;;;;;33.30;22.40;;;;;;;8.04;46.68;98441.28;5066656;28;20285;-72
2022/03/20 03:04:29;;;;;;;31.57;23.27;;;;;;;8.06;47.13;98439.41;5071852;28;20206;-72
2022/03/20 03:06:54;;;;;;;30.17;22.10;;;;;;;8.25;47.09;98449.41;5071986;28;20179;-71
2022/03/20 03:12:05;;;;;;;30.20;22.07;;;;;;;8.41;45.95;98450.00;5062999;28;20189;-72
2022/03/20 03:17:27;;;;;;;32.23;21.50;;;;;;;8.43;45.60;98458.59;5055461;28;20433;-71
2022/03/20 03:19:56;;;;;;;37.93;22.63;;;;;;;8.40;45.64;98456.19;5071964;28;20424;-71
2022/03/20 03:22:25;;;;;;;30.03;21.57;;;;;;;8.41;46.62;98459.59;5051408;28;20531;-70
2022/03/20 03:24:51;;;;;;;37.37;22.40;;;;;;;8.42;46.09;98464.75;5071505;28;20453;-71
2022/03/20 03:27:16;;;;;;;29.33;22.10;;;;;;;8.33;45.49;98467.16;5071496;28;20478;-71
2022/03/20 03:29:42;;;;;;;31.47;22.43;;;;;;;8.36;46.56;98473.00;5071845;28;20174;-71
2022/03/20 03:32:07;;;;;;;34.63;23.40;;;;;;;8.39;46.32;98478.00;5066135;28;20718;-71
2022/03/20 03:37:20;;;;;;;28.03;21.10;;;;;;;8.30;46.28;98463.81;5071503;28;20319;-71
2022/03/20 03:39:46;;;;;;;34.77;23.90;;;;;;;8.09;46.10;98470.53;5070553;28;20982;-71
2022/03/20 03:42:12;;;;;;;32.23;22.50;;;;;;;8.08;46.45;98477.50;5052950;28;20425;-71
2022/03/20 03:44:37;;;;;;;30.03;22.07;;;;;;;8.03;46.80;98476.16;5065702;28;20468;-71
2022/03/20 03:47:03;;;;;;;30.07;21.80;;;;;;;8.19;46.80;98473.34;5066584;28;20264;-72
2022/03/20 03:49:29;;;;;;;29.17;20.67;;;;;;;8.12;46.19;98471.16;5071403;28;20184;-71
2022/03/20 03:51:55;;;;;;;29.30;20.27;;;;;;;8.20;46.17;98468.00;5063103;28;20178;-71
2022/03/20 03:54:21;;;;;;;30.63;21.60;;;;;;;8.28;46.00;98463.09;5070842;28;20445;-70
2022/03/20 03:56:46;;;;;;;35.20;22.07;;;;;;;8.36;46.23;98465.16;5059659;28;20191;-71
2022/03/20 03:59:12;;;;;;;29.83;20.53;;;;;;;8.38;46.53;98468.50;5068435;28;20198;-71
2022/03/20 04:01:37;;;;;;;31.83;21.60;;;;;;;8.39;46.07;98466.72;5056915;28;20217;-71
2022/03/20 04:04:03;;;;;;;29.00;21.37;;;;;;;8.42;46.66;98467.34;5063998;28;20245;-71
2022/03/20 04:06:28;;;;;;;34.50;22.27;;;;;;;8.39;46.89;98459.72;5052807;28;20174;-71
2022/03/20 04:08:54;;;;;;;30.43;21.07;;;;;;;8.41;46.71;98457.84;5071133;28;20186;-71
2022/03/20 04:11:20;;;;;;;26.20;19.40;;;;;;;8.42;46.26;98461.28;5071171;28;20186;-72
2022/03/20 04:13:46;;;;;;;30.63;21.10;;;;;;;8.38;45.67;98468.50;5070029;28;20477;-72
2022/03/20 04:16:11;;;;;;;30.10;21.77;;;;;;;8.35;46.57;98466.09;5070634;28;20206;-70
2022/03/20 04:18:37;;;;;;;29.20;21.10;;;;;;;8.40;45.99;98463.16;5070937;28;20560;-71
2022/03/20 04:21:04;;;;;;;28.80;21.17;;;;;;;8.44;45.16;98464.63;5069831;28;20671;-71
2022/03/20 04:23:49;;;;;;;29.83;20.97;;;;;;;8.50;45.23;98466.00;5070821;28;20676;-71
2022/03/20 04:26:20;;;;;;;30.50;21.90;;;;;;;8.35;45.46;98476.56;5069475;28;20451;-71
2022/03/20 04:28:47;;;;;;;30.57;20.97;;;;;;;8.37;46.24;98477.28;5069849;28;20425;-71
2022/03/20 04:31:16;;;;;;;31.33;20.13;;;;;;;8.37;45.64;98474.66;5065360;28;20437;-71
2022/03/20 04:33:43;;;;;;;34.37;21.20;;;;;;;8.42;45.51;98477.81;5068564;28;20433;-71
2022/03/20 04:36:09;;;;;;;31.53;21.53;;;;;;;8.40;43.49;98482.31;5054594;28;20449;-71
2022/03/20 04:38:37;;;;;;;29.40;20.57;;;;;;;8.41;43.27;98481.38;5067358;28;20416;-71
2022/03/20 04:41:04;;;;;;;27.50;19.60;;;;;;;8.39;42.79;98470.19;5040497;28;20465;-72
2022/03/20 04:43:30;;;;;;;32.83;21.00;;;;;;;8.42;42.15;98480.41;5054464;28;20464;-72
2022/03/20 04:45:55;;;;;;;31.10;21.00;;;;;;;8.40;41.76;98478.84;5054696;28;20449;-71
2022/03/20 04:59:17;;;;;;;29.17;20.30;;;;;;;8.54;40.97;98480.53;5047583;28;20434;-71
2022/03/20 05:01:42;;;;;;;29.93;19.50;;;;;;;8.45;40.28;98482.78;5054811;28;20487;-72
2022/03/20 05:04:08;;;;;;;35.10;21.77;;;;;;;8.50;40.28;98490.38;5054739;28;20202;-71
2022/03/20 05:06:34;;;;;;;31.30;20.57;;;;;;;8.45;40.77;98497.66;5053915;28;20179;-70
2022/03/20 05:14:27;;;;;;;32.23;21.87;;;;;;;8.46;41.10;98483.66;5053539;28;20510;-71
2022/03/20 05:16:53;;;;;;;33.07;22.63;;;;;;;8.40;41.45;98484.91;5062130;28;20472;-71
2022/03/20 05:19:19;;;;;;;32.60;21.80;;;;;;;8.46;41.07;98488.88;5062432;28;20235;-71
2022/03/20 05:21:48;;;;;;;34.63;24.33;;;;;;;8.36;41.22;98501.72;5065681;28;20179;-71
2022/03/20 05:24:14;;;;;;;39.80;22.97;;;;;;;8.40;41.19;98499.75;5053636;28;20465;-72
2022/03/20 05:26:40;;;;;;;35.20;22.93;;;;;;;8.46;41.20;98502.75;5052620;28;20425;-70
2022/03/20 05:29:05;;;;;;;35.13;24.63;;;;;;;8.43;41.68;98495.16;5054592;28;20547;-71
2022/03/20 05:31:31;;;;;;;38.33;23.93;;;;;;;8.35;41.43;98494.84;5056345;28;20192;-71
2022/03/20 05:33:58;;;;;;;32.63;22.40;;;;;;;8.40;41.84;98500.59;5040926;28;20182;-71
2022/03/20 05:36:28;;;;;;;35.70;24.20;;;;;;;8.25;42.52;98497.25;5053081;28;20183;-72
2022/03/20 05:38:58;;;;;;;34.77;23.07;;;;;;;8.31;41.88;98498.63;5052010;28;20574;-71
2022/03/20 05:44:11;;;;;;;41.40;24.97;;;;;;;8.28;42.58;98509.28;5052752;28;20580;-70
2022/03/20 05:46:40;;;;;;;40.03;24.37;;;;;;;8.39;42.32;98509.38;5052500;28;20428;-71
2022/03/20 05:49:06;;;;;;;38.60;25.50;;;;;;;8.34;41.86;98508.84;5053250;28;20518;-70
2022/03/20 05:51:34;;;;;;;38.33;24.03;;;;;;;8.42;41.75;98511.78;5056944;28;20453;-71
2022/03/20 05:54:00;;;;;;;35.67;23.33;;;;;;;8.54;41.36;98517.13;5053374;28;20818;-70
2022/03/20 05:59:09;;;;;;;38.43;23.77;;;;;;;8.72;41.73;98523.66;5058637;28;20412;-71
2022/03/20 06:01:35;;;;;;;37.87;24.07;;;;;;;8.76;41.93;98517.28;5052227;28;20797;-72
2022/03/20 06:04:03;;;;;;;41.50;25.30;;;;;;;8.81;41.49;98523.97;5053050;28;20207;-72
2022/03/20 06:06:29;;;;;;;40.10;23.53;;;;;;;8.84;40.74;98518.50;5052335;28;20190;-71
2022/03/20 06:08:55;;;;;;;36.47;23.37;;;;;;;8.89;41.11;98530.28;5060220;28;20444;-72
2022/03/20 06:11:21;;;;;;;39.37;24.00;;;;;;;8.97;40.95;98524.53;5050095;28;20435;-71
2022/03/20 06:13:48;;;;;;;38.93;24.03;;;;;;;8.84;41.13;98518.50;5053356;28;20175;-71
2022/03/20 06:16:17;;;;;;;36.87;23.40;;;;;;;8.91;41.16;98523.19;5050973;28;20199;-71
2022/03/20 06:18:44;;;;;;;33.53;22.83;;;;;;;8.96;40.79;98525.47;5061380;28;20515;-72
2022/03/20 06:21:12;;;;;;;35.73;24.10;;;;;;;8.94;41.14;98532.59;5052769;28;20422;-72
2022/03/20 06:23:38;;;;;;;36.70;23.43;;;;;;;8.97;40.97;98529.75;5057428;28;20455;-73
2022/03/20 06:26:04;;;;;;;33.00;23.37;;;;;;;8.78;40.95;98532.84;5056584;28;20442;-72
2022/03/20 06:28:30;;;;;;;47.83;25.37;;;;;;;8.82;41.98;98533.47;5052736;28;20293;-72
2022/03/20 06:30:56;;;;;;;40.50;24.30;;;;;;;8.82;41.62;98536.91;5052714;28;20426;-70
2022/03/20 06:33:21;;;;;;;37.47;25.40;;;;;;;8.94;41.31;98537.84;5052210;28;20178;-71
2022/03/20 06:35:47;;;;;;;35.90;24.07;;;;;;;9.06;41.46;98543.94;5060461;28;20202;-71
2022/03/20 06:38:12;;;;;;;38.83;25.13;;;;;;;9.14;41.75;98543.41;5052289;28;20687;-70
2022/03/20 06:40:38;;;;;;;36.30;23.40;;;;;;;9.35;41.25;98549.69;5043984;28;20192;-70
2022/03/20 06:43:04;;;;;;;36.83;25.70;;;;;;;9.42;40.78;98544.84;5048214;28;20202;-70
2022/03/20 06:45:29;;;;;;;34.50;24.17;;;;;;;9.45;40.60;98547.25;5051737;28;20438;-70
2022/03/20 06:47:55;;;;;;;39.43;25.90;;;;;;;9.37;40.98;98552.22;5052408;28;20266;-69
2022/03/20 06:50:21;;;;;;;39.57;25.40;;;;;;;9.37;41.72;98552.22;5048306;28;20550;-70
2022/03/20 06:52:46;;;;;;;36.17;24.27;;;;;;;9.56;41.64;98561.31;5052297;28;20190;-70
2022/03/20 06:55:13;;;;;;;35.53;24.60;;;;;;;9.70;41.36;98565.56;5051904;28;20822;-70
2022/03/20 06:57:44;;;;;;;35.83;25.03;;;;;;;9.75;41.20;98555.56;5060450;28;20190;-71
2022/03/20 07:00:11;;;;;;;36.93;25.40;;;;;;;9.96;40.98;98559.19;5052187;28;20434;-70
2022/03/20 07:02:36;;;;;;;36.37;25.50;;;;;;;9.94;40.62;98555.88;5052425;28;20421;-71
2022/03/20 07:05:02;;;;;;;35.27;24.70;;;;;;;10.22;40.40;98564.25;5058687;28;20515;-71
2022/03/20 07:07:28;;;;;;;38.23;25.53;;;;;;;10.41;40.01;98561.09;5050936;28;20677;-70
2022/03/20 07:09:53;;;;;;;37.27;24.50;;;;;;;10.54;39.89;98562.75;5050951;28;20433;-70
2022/03/20 07:12:19;;;;;;;35.80;25.23;;;;;;;10.68;39.58;98556.47;5034121;28;20241;-69
2022/03/20 07:14:45;;;;;;;34.77;25.67;;;;;;;10.78;39.55;98560.03;5039134;28;20186;-71
2022/03/20 07:17:16;;;;;;;39.27;26.80;;;;;;;10.88;39.25;98571.44;5055181;28;20264;-69
2022/03/20 07:19:43;;;;;;;33.20;24.40;;;;;;;10.97;39.30;98571.66;5056783;28;20437;-70
2022/03/20 07:22:10;;;;;;;37.63;25.80;;;;;;;11.07;39.02;98575.25;5051750;28;20426;-70
2022/03/20 07:24:37;;;;;;;34.37;24.07;;;;;;;11.18;38.82;98577.84;5051623;28;20465;-71
2022/03/20 07:29:49;;;;;;;35.57;25.30;;;;;;;11.37;38.57;98584.25;5050846;28;20444;-71
2022/03/20 07:32:15;;;;;;;36.97;26.20;;;;;;;11.50;38.00;98581.47;5049932;28;20452;-70
2022/03/20 07:34:44;;;;;;;35.60;25.40;;;;;;;11.56;37.65;98585.38;5051140;28;20452;-70
2022/03/20 07:37:09;;;;;;;39.27;26.20;;;;;;;11.50;37.28;98586.72;5052577;28;20426;-71
2022/03/20 07:39:35;;;;;;;35.63;25.93;;;;;;;11.66;37.52;98589.75;5051666;28;20418;-71
2022/03/20 07:42:01;;;;;;;36.10;24.70;;;;;;;11.44;37.71;98593.31;5051570;28;20266;-71
2022/03/20 07:44:29;;;;;;;39.90;26.47;;;;;;;11.67;37.26;98577.47;5051144;28;20473;-70
2022/03/20 07:46:55;;;;;;;35.37;25.33;;;;;;;11.88;37.18;98585.38;5051299;28;20193;-70
2022/03/20 07:49:20;;;;;;;34.50;24.80;;;;;;;12.07;37.11;98594.38;5050390;28;20438;-71
2022/03/20 07:51:46;;;;;;;39.73;26.97;;;;;;;12.09;36.95;98598.56;5051761;28;20175;-72
2022/03/20 07:54:13;;;;;;;37.00;26.00;;;;;;;12.28;36.48;98592.59;5049503;28;20525;-72
2022/03/20 07:56:39;;;;;;;40.70;27.53;;;;;;;12.29;35.94;98593.41;5051113;28;20190;-70
2022/03/20 07:59:05;;;;;;;42.70;26.77;;;;;;;12.54;35.84;98591.34;5049623;28;20569;-72
2022/03/20 08:01:34;;;;;;;35.83;25.60;;;;;;;12.55;35.67;98603.53;5051021;28;20179;-71
2022/03/20 08:04:00;;;;;;;38.30;25.27;;;;;;;12.61;35.54;98597.72;5051000;28;20472;-71
2022/03/20 08:06:26;;;;;;;34.93;25.70;;;;;;;12.79;35.28;98597.13;5050908;28;20512;-71
2022/03/20 08:08:52;;;;;;;35.90;25.70;;;;;;;12.90;35.48;98592.59;5050501;28;20445;-71
2022/03/20 08:11:19;;;;;;;37.70;25.90;;;;;;;12.84;34.58;98594.94;5049944;28;20429;-71
2022/03/20 08:13:44;;;;;;;39.30;25.90;;;;;;;12.69;35.03;98589.19;5051126;28;20450;-71
2022/03/20 08:16:15;;;;;;;36.53;25.93;;;;;;;12.93;35.19;98586.25;5050562;28;20484;-71
2022/03/20 08:18:43;;;;;;;36.00;25.33;;;;;;;13.22;34.77;98582.84;5049036;28;20218;-72
2022/03/20 08:21:10;;;;;;;40.50;25.97;;;;;;;13.62;34.22;98576.69;5047805;28;20432;-70
2022/03/20 08:23:36;;;;;;;35.53;26.10;;;;;;;13.55;33.56;98591.38;5050890;28;20457;-72
2022/03/20 08:26:01;;;;;;;31.17;23.80;;;;;;;14.04;33.32;98585.25;5049568;28;20434;-70
2022/03/20 08:28:27;;;;;;;38.63;25.07;;;;;;;14.26;32.82;98584.13;5050835;28;20730;-71
2022/03/20 08:30:53;;;;;;;34.47;25.63;;;;;;;14.50;32.75;98586.25;5049738;28;20191;-71
2022/03/20 08:33:18;;;;;;;42.83;26.30;;;;;;;14.06;32.58;98584.13;5049642;28;20258;-70
2022/03/20 08:35:44;;;;;;;34.03;23.97;;;;;;;14.23;32.02;98606.34;5050776;28;20195;-70
2022/03/20 08:38:09;;;;;;;43.03;24.33;;;;;;;13.70;33.05;98601.50;5049920;28;20774;-71
2022/03/20 08:40:35;;;;;;;31.70;24.50;;;;;;;13.80;32.47;98600.53;5048984;28;20179;-71
2022/03/20 08:43:04;;;;;;;38.83;24.70;;;;;;;13.88;33.01;98597.19;5050874;28;20558;-71
2022/03/20 08:45:31;;;;;;;30.87;23.70;;;;;;;14.11;32.82;98608.28;5050375;28;20285;-71
2022/03/20 08:47:57;;;;;;;35.20;24.73;;;;;;;14.62;31.76;98609.88;5050806;28;20490;-71
2022/03/20 08:50:23;;;;;;;34.50;25.10;;;;;;;14.80;31.73;98613.41;5049875;28;20437;-70
2022/03/20 08:52:49;;;;;;;33.40;23.73;;;;;;;15.03;31.56;98613.03;5048561;28;20429;-71
2022/03/20 08:55:16;;;;;;;40.20;23.80;;;;;;;15.21;31.74;98610.44;5046526;28;20465;-70
2022/03/20 08:57:44;;;;;;;33.83;23.93;;;;;;;15.54;31.21;98605.53;5045329;28;20254;-72
2022/03/20 09:00:12;;;;;;;34.40;23.47;;;;;;;15.89;30.80;98608.34;5050021;28;20482;-72
2022/03/20 09:02:38;;;;;;;29.83;22.37;;;;;;;16.22;29.56;98611.25;5044558;28;20433;-71
2022/03/20 09:05:06;;;;;;;31.90;23.30;;;;;;;16.58;29.08;98609.31;5057625;28;20464;-71
2022/03/20 09:07:32;;;;;;;30.00;21.40;;;;;;;16.89;28.96;98610.63;5050661;28;20175;-69
2022/03/20 09:09:58;;;;;;;30.30;22.87;;;;;;;16.76;28.35;98610.28;5050731;28;20787;-71
2022/03/20 09:12:23;;;;;;;31.63;22.03;;;;;;;17.06;28.05;98611.59;5050543;28;20232;-71
2022/03/20 09:14:49;;;;;;;29.37;21.67;;;;;;;17.19;27.37;98606.69;5050619;28;20195;-71
2022/03/20 09:19:59;;;;;;;27.60;21.03;;;;;;;17.25;27.76;98599.91;5052113;28;20186;-73
2022/03/20 09:22:27;;;;;;;28.90;20.37;;;;;;;17.49;26.77;98599.13;5051569;28;20418;-71
2022/03/20 09:24:53;;;;;;;28.07;21.77;;;;;;;17.36;26.91;98593.47;5054000;28;20672;-70
2022/03/20 09:27:19;;;;;;;27.80;20.10;;;;;;;17.87;26.70;98598.69;5053020;28;20511;-71
2022/03/20 09:29:44;;;;;;;24.87;19.33;;;;;;;18.10;26.34;98603.34;5054277;28;20182;-71
2022/03/20 09:32:10;;;;;;;28.60;20.27;;;;;;;18.26;26.04;98597.19;5053944;28;20202;-70
2022/03/20 09:34:35;;;;;;;28.80;21.07;;;;;;;18.33;25.94;98602.66;5053935;28;20285;-71
2022/03/20 09:37:02;;;;;;;27.00;20.40;;;;;;;18.63;26.02;98606.41;5054145;28;20207;-71
2022/03/20 09:39:27;;;;;;;27.27;20.33;;;;;;;18.76;25.86;98613.84;5052548;28;20191;-71
2022/03/20 09:41:55;;;;;;;28.60;20.47;;;;;;;19.08;25.33;98621.91;5054190;28;20435;-70
2022/03/20 09:44:25;;;;;;;31.80;21.10;;;;;;;19.07;25.78;98615.75;5053659;28;20203;-71
2022/03/20 09:46:51;;;;;;;34.90;23.53;;;;;;;19.30;25.99;98614.97;5053400;28;20482;-71
2022/03/20 09:49:19;;;;;;;29.50;22.10;;;;;;;19.14;26.15;98622.06;5052734;28;20791;-70
2022/03/20 09:51:44;;;;;;;32.07;21.40;;;;;;;19.37;26.52;98626.59;5053700;28;20501;-71
2022/03/20 09:54:13;;;;;;;28.80;21.47;;;;;;;19.34;26.56;98621.59;5053425;28;20494;-71
2022/03/20 09:56:41;;;;;;;25.60;19.70;;;;;;;19.60;26.79;98621.28;5044105;28;20191;-71
2022/03/20 09:59:07;;;;;;;29.27;19.37;;;;;;;19.67;26.88;98632.03;5052491;28;20456;-71
2022/03/20 10:01:34;;;;;;;23.67;18.23;;;;;;;20.00;27.15;98625.69;5045378;28;20429;-71
2022/03/20 10:04:12;;;;;;;35.83;19.30;;;;;;;19.65;26.51;98626.91;5053357;28;20445;-70
2022/03/20 10:06:39;;;;;;;26.40;20.03;;;;;;;19.47;26.88;98637.81;5045671;28;20425;-71
2022/03/20 10:09:13;;;;;;;24.67;18.93;;;;;;;19.19;27.63;98646.25;5053551;28;20421;-71
2022/03/20 10:11:50;;;;;;;29.60;21.37;;;;;;;19.05;27.54;98648.81;5046230;28;20425;-72
2022/03/20 10:14:15;;;;;;;29.40;20.90;;;;;;;18.74;27.58;98645.06;5052107;28;20414;-72
2022/03/20 10:16:47;;;;;;;33.63;20.90;;;;;;;18.40;28.39;98632.81;5051238;28;20440;-71
2022/03/20 10:19:22;;;;;;;29.50;21.07;;;;;;;18.21;28.60;98632.19;5051823;28;20187;-73
2022/03/20 10:21:51;;;;;;;28.90;21.37;;;;;;;18.32;29.25;98635.50;5053272;28;20990;-72
2022/03/20 10:24:19;;;;;;;27.77;20.53;;;;;;;18.32;29.13;98646.09;5052943;28;20456;-70
2022/03/20 10:26:45;;;;;;;31.40;20.20;;;;;;;18.26;29.40;98644.94;5052868;28;20426;-71
2022/03/20 10:29:19;;;;;;;30.13;21.30;;;;;;;18.06;29.59;98644.44;5052747;28;20581;-70
2022/03/20 10:31:50;;;;;;;30.70;22.20;;;;;;;18.09;29.83;98634.34;5052190;28;20466;-72
2022/03/20 10:34:15;;;;;;;29.70;19.93;;;;;;;17.97;30.02;98638.31;5052612;28;20437;-70
2022/03/20 10:36:45;;;;;;;32.40;20.90;;;;;;;17.89;30.42;98635.63;5052620;28;20422;-71
2022/03/20 10:39:14;;;;;;;31.27;20.53;;;;;;;17.72;30.91;98640.91;5052195;28;20179;-72
2022/03/20 10:41:40;;;;;;;27.67;19.93;;;;;;;17.83;30.91;98634.47;5053185;28;20841;-71
2022/03/20 10:44:20;;;;;;;28.87;20.10;;;;;;;17.88;30.85;98636.63;5052795;28;20469;-71
2022/03/20 10:47:02;;;;;;;31.27;19.57;;;;;;;17.83;31.19;98642.41;5045779;28;20186;-71
2022/03/20 10:49:28;;;;;;;25.67;18.97;;;;;;;17.89;31.71;98631.19;5048002;28;20433;-71
2022/03/20 10:52:11;;;;;;;27.17;19.20;;;;;;;17.89;31.34;98628.53;5051751;28;20511;-71
2022/03/20 10:54:50;;;;;;;29.27;19.53;;;;;;;17.94;30.99;98638.63;5034692;28;20452;-70
2022/03/20 10:57:16;;;;;;;26.67;20.40;;;;;;;17.99;31.59;98638.97;5052457;28;20444;-71
2022/03/20 10:59:42;;;;;;;24.93;17.80;;;;;;;18.03;30.77;98640.31;5052817;28;20421;-71
2022/03/20 11:02:21;;;;;;;20.77;16.83;;;;;;;18.14;30.73;98641.81;5051056;28;20665;-71
2022/03/20 11:04:47;;;;;;;25.60;18.00;;;;;;;18.17;30.50;98636.16;5052785;28;20473;-71
2022/03/20 11:07:16;;;;;;;23.57;17.57;;;;;;;18.26;30.85;98643.16;5052243;28;20429;-71
2022/03/20 11:09:51;;;;;;;27.80;17.03;;;;;;;18.20;29.60;98640.31;5053769;28;20183;-71
2022/03/20 11:12:27;;;;;;;27.67;16.10;;;;;;;18.34;29.60;98636.16;5052652;28;20425;-71
2022/03/20 11:14:54;;;;;;;28.13;17.00;;;;;;;18.53;29.30;98638.44;5052130;28;20894;-70
2022/03/20 11:17:21;;;;;;;37.97;18.53;;;;;;;18.68;30.01;98635.94;5060063;28;20429;-71
2022/03/20 11:19:50;;;;;;;26.17;17.20;;;;;;;19.29;30.22;98630.09;5050014;28;20775;-71
2022/03/20 11:22:18;;;;;;;25.80;17.97;;;;;;;19.85;28.78;98622.97;5052278;28;20525;-71
2022/03/20 11:24:46;;;;;;;24.40;16.20;;;;;;;20.32;28.28;98627.25;5046261;28;20462;-71
2022/03/20 11:27:15;;;;;;;21.57;15.90;;;;;;;20.83;28.65;98620.44;5043622;28;20426;-70
2022/03/20 11:29:48;;;;;;;22.77;14.67;;;;;;;21.24;26.31;98622.63;5048539;28;20413;-70
2022/03/20 11:32:14;;;;;;;22.67;13.10;;;;;;;21.30;25.67;98616.53;5043635;28;20514;-71
2022/03/20 11:34:40;;;;;;;28.40;13.37;;;;;;;21.23;25.99;98614.81;5044379;28;20437;-71
2022/03/20 11:37:13;;;;;;;15.80;12.00;;;;;;;21.24;25.69;98614.63;5058458;28;20412;-72
2022/03/20 11:40:12;;;;;;;20.97;12.20;;;;;;;21.65;25.50;98618.56;5044396;28;20313;-72
2022/03/20 11:42:38;;;;;;;21.17;12.10;;;;;;;22.06;25.40;98609.09;5044707;28;20421;-72
2022/03/20 11:45:06;;;;;;;24.93;11.53;;;;;;;22.30;24.79;98605.19;5051473;28;20975;-72
2022/03/20 11:47:33;;;;;;;16.93;8.97;;;;;;;21.87;24.59;98608.75;5047954;28;20421;-71
2022/03/20 11:50:20;;;;;;;25.77;10.43;;;;;;;22.20;24.27;98605.53;5043730;28;20936;-71
2022/03/20 11:52:55;;;;;;;17.23;10.53;;;;;;;22.25;24.01;98607.59;5043159;28;20929;-71
2022/03/20 11:55:29;;;;;;;18.60;9.57;;;;;;;22.69;23.66;98608.34;5047667;28;20535;-71
2022/03/20 11:57:55;;;;;;;15.33;9.60;;;;;;;22.96;23.27;98597.78;5049152;28;20429;-70